createdAt,value
2018-01-03T00:00:42.088Z,63.60
2018-01-03T00:03:12.672Z,63.60
2018-01-03T00:05:41.041Z,63.60
2018-01-03T00:08:09.844Z,63.50
2018-01-03T00:10:38.866Z,63.60
2018-01-03T00:13:07.105Z,63.70
2018-01-03T00:15:35.335Z,63.50
2018-01-03T00:18:03.637Z,64.00
2018-01-03T00:20:31.902Z,64.00
2018-01-03T00:23:01.774Z,64.30
2018-01-03T00:25:30.160Z,64.10
2018-01-03T00:27:59.426Z,63.90
2018-01-03T00:30:27.692Z,63.90
2018-01-03T00:32:57.518Z,64.10
2018-01-03T00:35:25.879Z,64.50
2018-01-03T00:37:55.105Z,64.10
2018-01-03T00:40:23.358Z,64.20
2018-01-03T00:42:52.189Z,63.40
2018-01-03T00:45:20.452Z,64.10
2018-01-03T00:47:48.748Z,64.80
2018-01-03T00:50:17.019Z,63.30
2018-01-03T00:52:45.273Z,64.30
2018-01-03T00:55:13.540Z,64.20
2018-01-03T00:57:42.883Z,63.10
2018-01-03T01:00:11.182Z,63.80
2018-01-03T01:02:40.392Z,63.90
2018-01-03T01:05:08.667Z,63.00
2018-01-03T01:07:37.837Z,63.00
2018-01-03T01:10:06.228Z,64.00
2018-01-03T01:12:34.503Z,63.80
2018-01-03T01:15:02.752Z,64.00
2018-01-03T01:17:30.982Z,64.10
2018-01-03T01:19:59.267Z,63.20
2018-01-03T01:22:27.552Z,63.20
2018-01-03T01:24:56.656Z,63.40
2018-01-03T01:27:25.084Z,64.30
2018-01-03T01:29:54.096Z,63.50
2018-01-03T01:32:22.389Z,63.50
2018-01-03T01:34:50.624Z,64.30
2018-01-03T01:37:20.493Z,64.30
2018-01-03T01:39:48.780Z,63.30
2018-01-03T01:42:18.928Z,63.50
2018-01-03T01:44:47.195Z,63.50
2018-01-03T01:47:16.977Z,63.60
2018-01-03T01:49:45.240Z,63.50
2018-01-03T01:52:13.533Z,64.50
2018-01-03T01:54:41.797Z,63.50
2018-01-03T01:57:10.032Z,63.60
2018-01-03T01:59:38.341Z,63.80
2018-01-03T02:02:06.595Z,63.40
2018-01-03T02:04:34.829Z,63.40
2018-01-03T02:07:03.103Z,63.50
2018-01-03T02:09:31.389Z,64.70
2018-01-03T02:11:59.677Z,63.90
2018-01-03T02:14:28.751Z,64.10
2018-01-03T02:16:57.038Z,64.30
2018-01-03T02:19:26.083Z,64.50
2018-01-03T02:21:54.320Z,64.20
2018-01-03T02:24:23.400Z,64.20
2018-01-03T02:26:52.436Z,65.40
2018-01-03T02:29:20.715Z,64.70
2018-01-03T02:31:49.012Z,64.50
2018-01-03T02:34:17.275Z,64.70
2018-01-03T02:36:45.987Z,64.80
2018-01-03T02:39:15.164Z,64.70
2018-01-03T02:41:44.260Z,65.30
2018-01-03T02:44:13.275Z,65.20
2018-01-03T02:46:41.555Z,65.40
2018-01-03T02:49:09.800Z,65.30
2018-01-03T02:51:38.092Z,65.30
2018-01-03T02:54:06.361Z,65.40
2018-01-03T02:56:34.609Z,65.30
2018-01-03T02:59:02.880Z,65.30
2018-01-03T03:01:32.721Z,65.40
2018-01-03T03:04:01.004Z,65.20
2018-01-03T03:06:30.280Z,65.80
2018-01-03T03:08:59.258Z,65.80
2018-01-03T03:11:27.516Z,65.80
2018-01-03T03:13:57.295Z,65.70
2018-01-03T03:16:25.567Z,65.70
2018-01-03T03:18:53.841Z,65.40
2018-01-03T03:21:22.092Z,65.10
2018-01-03T03:23:50.372Z,66.10
2018-01-03T03:26:19.399Z,66.20
2018-01-03T03:28:47.652Z,66.00
2018-01-03T03:31:15.914Z,65.70
2018-01-03T03:33:44.204Z,65.50
2018-01-03T03:36:14.752Z,66.50
2018-01-03T03:38:43.005Z,66.30
2018-01-03T03:41:11.264Z,66.50
2018-01-03T03:43:39.534Z,66.60
2018-01-03T03:46:07.796Z,65.90
2018-01-03T03:48:36.076Z,65.70
2018-01-03T03:51:04.319Z,66.40
2018-01-03T03:53:32.572Z,65.60
2018-01-03T03:56:01.121Z,66.70
2018-01-03T03:58:29.360Z,66.10
2018-01-03T04:00:57.645Z,66.70
2018-01-03T04:03:25.912Z,65.60
2018-01-03T04:05:54.204Z,66.10
2018-01-03T04:08:22.452Z,66.80
2018-01-03T04:10:51.531Z,66.10
2018-01-03T04:13:19.796Z,66.40
2018-01-03T04:15:48.056Z,66.60
2018-01-03T04:18:17.192Z,66.60
2018-01-03T04:20:45.488Z,66.80
2018-01-03T04:23:14.581Z,67.10
2018-01-03T04:25:43.086Z,67.30
2018-01-03T04:28:11.327Z,67.40
2018-01-03T04:30:39.625Z,67.40
2018-01-03T04:33:07.911Z,67.40
2018-01-03T04:35:36.211Z,67.60
2018-01-03T04:38:04.693Z,67.90
2018-01-03T04:40:32.965Z,68.50
2018-01-03T04:43:01.835Z,69.30
2018-01-03T04:45:30.117Z,66.20
2018-01-03T04:47:58.385Z,66.00
2018-01-03T04:50:27.423Z,65.00
2018-01-03T04:52:55.660Z,65.00
2018-01-03T04:55:24.387Z,64.60
2018-01-03T04:57:53.407Z,64.30
2018-01-03T05:00:21.685Z,64.70
2018-01-03T05:02:50.120Z,64.80
2018-01-03T05:05:19.194Z,64.30
2018-01-03T05:07:48.972Z,63.50
2018-01-03T05:10:17.227Z,63.30
2018-01-03T05:12:45.470Z,62.40
2018-01-03T05:15:14.312Z,62.60
2018-01-03T05:17:42.588Z,62.10
2018-01-03T05:20:11.861Z,61.70
2018-01-03T05:22:40.560Z,61.50
2018-01-03T05:25:08.799Z,60.90
2018-01-03T05:27:38.680Z,61.00
2018-01-03T05:30:07.009Z,60.00
2018-01-03T05:32:35.752Z,60.20
2018-01-03T05:35:04.795Z,60.10
2018-01-03T05:37:33.057Z,59.70
2018-01-03T05:40:02.060Z,59.30
2018-01-03T05:42:30.305Z,59.20
2018-01-03T05:45:00.140Z,59.10
2018-01-03T05:47:28.408Z,59.10
2018-01-03T05:49:57.409Z,59.10
2018-01-03T05:52:26.681Z,59.00
2018-01-03T05:54:54.957Z,59.20
2018-01-03T05:57:23.199Z,59.00
2018-01-03T05:59:51.508Z,59.20
2018-01-03T06:02:20.603Z,59.10
2018-01-03T06:04:49.017Z,58.80
2018-01-03T06:07:18.047Z,58.80
2018-01-03T06:09:46.485Z,58.90
2018-01-03T06:12:15.552Z,59.40
2018-01-03T06:14:43.869Z,59.40
2018-01-03T06:17:12.131Z,59.00
2018-01-03T06:19:40.586Z,59.00
2018-01-03T06:22:09.067Z,59.20
2018-01-03T06:24:37.288Z,59.40
2018-01-03T06:27:06.036Z,59.20
2018-01-03T06:29:35.329Z,59.10
2018-01-03T06:32:04.359Z,59.70
2018-01-03T06:34:32.653Z,59.80
2018-01-03T06:37:00.901Z,59.70
2018-01-03T06:39:30.056Z,59.50
2018-01-03T06:41:59.350Z,59.70
2018-01-03T06:44:27.582Z,59.60
2018-01-03T06:46:55.840Z,59.50
2018-01-03T06:49:25.024Z,59.10
2018-01-03T06:51:53.563Z,59.70
2018-01-03T06:54:21.785Z,59.10
2018-01-03T06:56:51.004Z,59.10
2018-01-03T06:59:20.124Z,59.10
2018-01-03T07:01:49.115Z,58.50
2018-01-03T07:04:17.380Z,58.50
2018-01-03T07:06:45.779Z,58.60
2018-01-03T07:09:14.028Z,58.30
2018-01-03T07:11:42.376Z,58.60
2018-01-03T07:14:10.652Z,57.60
2018-01-03T07:16:38.898Z,57.60
2018-01-03T07:19:07.162Z,58.00
2018-01-03T07:21:35.693Z,57.50
2018-01-03T07:24:03.926Z,57.00
2018-01-03T07:26:33.069Z,57.00
2018-01-03T07:29:01.362Z,56.60
2018-01-03T07:31:30.495Z,57.30
2018-01-03T07:33:58.728Z,58.20
2018-01-03T07:36:27.159Z,59.90
2018-01-03T07:38:57.877Z,61.30
2018-01-03T07:41:27.024Z,61.30
2018-01-03T07:43:57.072Z,61.10
2018-01-03T07:46:25.360Z,61.20
2018-01-03T07:48:53.690Z,61.20
2018-01-03T07:51:22.592Z,61.20
2018-01-03T07:53:50.973Z,61.00
2018-01-03T07:56:19.205Z,60.60
2018-01-03T07:58:47.433Z,60.90
2018-01-03T08:01:15.690Z,60.80
2018-01-03T08:03:45.453Z,60.20
2018-01-03T08:06:13.839Z,60.30
2018-01-03T08:08:43.075Z,59.90
2018-01-03T08:11:11.296Z,59.70
2018-01-03T08:13:40.960Z,59.40
2018-01-03T08:16:09.348Z,59.40
2018-01-03T08:18:41.607Z,60.30
2018-01-03T08:21:09.845Z,60.50
2018-01-03T08:23:38.876Z,61.30
2018-01-03T08:26:07.324Z,60.50
2018-01-03T08:28:36.623Z,60.60
2018-01-03T08:31:05.884Z,60.30
2018-01-03T08:33:34.887Z,60.30
2018-01-03T08:36:03.383Z,60.50
2018-01-03T08:38:35.873Z,60.50
2018-01-03T08:41:04.123Z,60.10
2018-01-03T08:43:32.419Z,60.50
2018-01-03T08:46:00.664Z,60.30
2018-01-03T08:48:28.919Z,60.30
2018-01-03T08:50:57.288Z,60.00
2018-01-03T08:53:25.519Z,60.00
2018-01-03T08:55:53.793Z,59.90
2018-01-03T08:58:22.035Z,59.90
2018-01-03T09:00:53.263Z,59.70
2018-01-03T09:03:21.537Z,59.80
2018-01-03T09:05:49.790Z,59.80
2018-01-03T09:08:18.296Z,59.90
2018-01-03T09:10:46.536Z,60.00
2018-01-03T09:13:14.784Z,59.90
2018-01-03T09:15:43.051Z,59.70
2018-01-03T09:18:12.962Z,59.60
2018-01-03T09:20:41.981Z,59.40
2018-01-03T09:23:10.412Z,59.40
2018-01-03T09:25:39.612Z,59.30
2018-01-03T09:28:07.863Z,59.50
2018-01-03T09:30:36.285Z,59.30
2018-01-03T09:33:04.785Z,59.40
2018-01-03T09:35:33.013Z,59.10
2018-01-03T09:38:02.253Z,58.50
2018-01-03T09:40:31.293Z,58.00
2018-01-03T09:42:59.532Z,58.00
2018-01-03T09:45:27.804Z,58.20
2018-01-03T09:47:56.091Z,57.40
2018-01-03T09:50:24.380Z,57.40
2018-01-03T09:52:52.654Z,57.20
2018-01-03T09:55:21.630Z,56.70
2018-01-03T09:57:50.345Z,56.60
2018-01-03T10:00:20.188Z,56.60
2018-01-03T10:02:49.248Z,57.30
2018-01-03T10:05:17.512Z,57.20
2018-01-03T10:07:45.753Z,58.00
2018-01-03T10:10:14.840Z,58.10
2018-01-03T10:12:43.071Z,58.40
2018-01-03T10:15:11.357Z,58.50
2018-01-03T10:17:39.637Z,58.60
2018-01-03T10:20:07.953Z,58.50
2018-01-03T10:22:37.111Z,58.70
2018-01-03T10:25:06.256Z,58.60
2018-01-03T10:27:35.380Z,58.60
2018-01-03T10:30:03.673Z,58.50
2018-01-03T10:32:31.916Z,58.40
2018-01-03T10:35:01.155Z,58.50
2018-01-03T10:37:29.466Z,58.10
2018-01-03T10:39:57.702Z,58.20
2018-01-03T10:42:25.963Z,58.20
2018-01-03T10:44:54.220Z,57.80
2018-01-03T10:47:23.212Z,57.20
2018-01-03T10:49:52.370Z,57.20
2018-01-03T10:52:21.268Z,57.40
2018-01-03T10:54:49.502Z,56.90
2018-01-03T10:57:18.709Z,56.40
2018-01-03T10:59:46.960Z,56.60
2018-01-03T11:02:15.243Z,56.30
2018-01-03T11:04:44.693Z,56.70
2018-01-03T11:07:12.976Z,56.70
2018-01-03T11:09:41.256Z,56.60
2018-01-03T11:12:09.517Z,56.60
2018-01-03T11:14:37.794Z,56.80
2018-01-03T11:17:08.113Z,57.10
2018-01-03T11:19:36.364Z,57.10
2018-01-03T11:22:04.674Z,57.30
2018-01-03T11:24:33.924Z,57.30
2018-01-03T11:27:03.002Z,58.00
2018-01-03T11:29:32.086Z,57.70
2018-01-03T11:32:01.189Z,57.90
2018-01-03T11:34:29.493Z,58.10
2018-01-03T11:36:57.811Z,58.10
2018-01-03T11:39:26.075Z,58.60
2018-01-03T11:41:54.371Z,58.30
2018-01-03T11:44:22.608Z,58.60
2018-01-03T11:46:50.875Z,58.90
2018-01-03T11:49:20.011Z,59.20
2018-01-03T11:51:48.906Z,59.40
2018-01-03T11:54:17.136Z,59.90
2018-01-03T11:56:46.100Z,59.80
2018-01-03T11:59:13.868Z,59.80
2018-01-03T12:01:42.879Z,60.00
2018-01-03T12:04:11.156Z,60.00
2018-01-03T12:06:39.456Z,60.50
2018-01-03T12:09:07.800Z,60.50
2018-01-03T12:11:36.048Z,60.60
2018-01-03T12:14:05.233Z,61.10
2018-01-03T12:16:35.000Z,60.80
2018-01-03T12:19:03.249Z,61.20
2018-01-03T12:21:31.564Z,60.80
2018-01-03T12:23:59.836Z,61.20
2018-01-03T12:26:28.881Z,61.30
2018-01-03T12:28:57.113Z,60.90
2018-01-03T12:31:25.392Z,60.80
2018-01-03T12:33:56.898Z,61.20
2018-01-03T12:36:26.005Z,61.60
2018-01-03T12:38:55.247Z,61.10
2018-01-03T12:41:23.489Z,61.20
2018-01-03T12:43:51.780Z,61.20
2018-01-03T12:46:20.041Z,61.40
2018-01-03T12:48:48.272Z,61.50
2018-01-03T12:51:16.659Z,61.40
2018-01-03T12:53:45.810Z,61.50
2018-01-03T12:56:14.043Z,61.50
2018-01-03T12:58:42.354Z,61.70
2018-01-03T13:01:10.613Z,61.80
2018-01-03T13:03:38.886Z,61.70
2018-01-03T13:06:07.190Z,61.80
2018-01-03T13:08:35.461Z,61.50
2018-01-03T13:11:04.868Z,61.60
2018-01-03T13:13:33.974Z,61.40
2018-01-03T13:16:03.849Z,61.80
2018-01-03T13:18:33.025Z,61.90
2018-01-03T13:21:02.192Z,61.80
2018-01-03T13:23:30.473Z,62.20
2018-01-03T13:25:58.749Z,61.80
2018-01-03T13:28:27.322Z,62.00
2018-01-03T13:30:55.770Z,62.00
2018-01-03T13:33:24.028Z,61.70
2018-01-03T13:35:52.316Z,62.10
2018-01-03T13:38:20.617Z,62.20
2018-01-03T13:40:50.525Z,62.00
2018-01-03T13:43:19.724Z,61.80
2018-01-03T13:45:48.409Z,62.00
2018-01-03T13:48:16.696Z,62.10
2018-01-03T13:50:45.900Z,62.00
2018-01-03T13:53:14.241Z,61.30
2018-01-03T13:55:42.534Z,61.90
2018-01-03T13:58:11.501Z,62.00
2018-01-03T14:00:39.961Z,62.30
2018-01-03T14:03:09.741Z,62.10
2018-01-03T14:05:37.980Z,61.60
2018-01-03T14:08:06.263Z,61.90
2018-01-03T14:10:34.565Z,61.60
2018-01-03T14:13:03.038Z,62.00
2018-01-03T14:15:31.305Z,61.60
2018-01-03T14:17:59.561Z,61.90
2018-01-03T14:20:27.830Z,61.60
2018-01-03T14:22:56.119Z,61.60
2018-01-03T14:25:24.451Z,61.70
2018-01-03T14:27:52.749Z,61.60
2018-01-03T14:30:21.074Z,61.80
2018-01-03T14:32:50.316Z,61.60
2018-01-03T14:35:19.637Z,61.70
2018-01-03T14:37:48.790Z,61.50
2018-01-03T14:40:17.031Z,61.30
2018-01-03T14:42:45.287Z,61.60
2018-01-03T14:45:14.368Z,62.20
2018-01-03T14:47:43.413Z,62.10
2018-01-03T14:50:12.145Z,62.10
2018-01-03T14:52:41.479Z,62.20
2018-01-03T14:55:11.510Z,62.10
2018-01-03T14:57:40.366Z,62.00
2018-01-03T15:00:10.466Z,62.20
2018-01-03T15:02:39.564Z,62.20
2018-01-03T15:05:08.865Z,62.00
2018-01-03T15:07:37.292Z,62.00
2018-01-03T15:10:05.584Z,62.10
2018-01-03T15:12:33.861Z,61.90
2018-01-03T15:15:02.164Z,61.90
2018-01-03T15:17:31.656Z,62.10
2018-01-03T15:20:01.704Z,61.80
2018-01-03T15:22:29.975Z,62.30
2018-01-03T15:25:00.368Z,62.40
2018-01-03T15:27:28.798Z,62.70
2018-01-03T15:29:57.240Z,62.20
2018-01-03T15:32:26.092Z,61.90
2018-01-03T15:34:54.364Z,62.10
2018-01-03T15:37:22.634Z,61.50
2018-01-03T15:39:53.740Z,61.40
2018-01-03T15:42:21.987Z,61.40
2018-01-03T15:44:50.251Z,61.40
2018-01-03T15:47:22.468Z,61.20
2018-01-03T15:49:50.703Z,61.50
2018-01-03T15:52:23.216Z,61.70
2018-01-03T15:54:52.101Z,61.50
2018-01-03T15:57:20.382Z,61.40
2018-01-03T15:59:48.685Z,61.30
2018-01-03T16:02:17.857Z,61.40
2018-01-03T16:04:46.178Z,61.20
2018-01-03T16:07:16.565Z,61.10
2018-01-03T16:09:45.848Z,61.10
2018-01-03T16:12:14.150Z,61.20
2018-01-03T16:14:43.189Z,60.80
2018-01-03T16:17:11.453Z,61.00
2018-01-03T16:19:40.461Z,60.90
2018-01-03T16:22:08.738Z,60.90
2018-01-03T16:24:37.970Z,60.90
2018-01-03T16:27:06.288Z,60.70
2018-01-03T16:29:34.554Z,60.60
2018-01-03T16:32:02.836Z,60.50
2018-01-03T16:34:31.097Z,60.00
2018-01-03T16:36:59.408Z,59.90
2018-01-03T16:39:27.682Z,59.90
2018-01-03T16:41:55.985Z,60.00
2018-01-03T16:44:24.257Z,60.10
2018-01-03T16:46:54.171Z,60.50
2018-01-03T16:49:22.507Z,60.70
2018-01-03T16:52:00.437Z,60.70
2018-01-03T16:54:30.468Z,60.50
2018-01-03T16:56:58.759Z,60.70
2018-01-03T16:59:27.189Z,60.60
2018-01-03T17:01:55.821Z,60.50
2018-01-03T17:04:25.354Z,60.20
2018-01-03T17:06:55.211Z,60.30
2018-01-03T17:09:24.568Z,60.20
2018-01-03T17:11:52.839Z,60.30
2018-01-03T17:14:21.175Z,59.90
2018-01-03T17:16:49.448Z,60.10
2018-01-03T17:19:17.703Z,60.00
2018-01-03T17:21:46.562Z,59.90
2018-01-03T17:24:15.612Z,59.70
2018-01-03T17:26:43.880Z,59.60
2018-01-03T17:29:12.173Z,59.90
2018-01-03T17:31:40.485Z,59.80
2018-01-03T17:34:08.776Z,59.50
2018-01-03T17:36:37.035Z,59.40
2018-01-03T17:39:05.279Z,59.20
2018-01-03T17:41:33.578Z,59.10
2018-01-03T17:44:02.629Z,58.60
2018-01-03T17:46:30.945Z,58.80
2018-01-03T17:48:59.196Z,59.10
2018-01-03T17:51:27.509Z,58.70
2018-01-03T17:53:55.994Z,58.90
2018-01-03T17:56:24.291Z,58.70
2018-01-03T17:58:52.543Z,58.70
2018-01-03T18:01:20.788Z,58.40
2018-01-03T18:03:49.095Z,58.70
2018-01-03T18:06:19.105Z,59.30
2018-01-03T18:08:47.492Z,58.90
2018-01-03T18:11:15.711Z,59.00
2018-01-03T18:13:43.997Z,59.20
2018-01-03T18:16:12.249Z,59.00
2018-01-03T18:18:40.533Z,60.00
2018-01-03T18:21:09.525Z,59.10
2018-01-03T18:23:37.786Z,59.20
2018-01-03T18:26:06.053Z,59.30
2018-01-03T18:28:34.520Z,59.50
2018-01-03T18:31:02.763Z,59.80
2018-01-03T18:33:31.019Z,60.00
2018-01-03T18:36:00.236Z,60.00
2018-01-03T18:38:28.486Z,60.00
2018-01-03T18:40:56.743Z,60.00
2018-01-03T18:43:25.004Z,59.80
2018-01-03T18:45:54.156Z,60.00
2018-01-03T18:48:22.402Z,60.00
2018-01-03T18:50:50.665Z,59.70
2018-01-03T18:53:19.684Z,59.60
2018-01-03T18:55:47.960Z,59.40
2018-01-03T18:58:16.985Z,59.10
2018-01-03T19:00:45.345Z,59.10
2018-01-03T19:03:13.600Z,58.80
2018-01-03T19:05:42.762Z,58.90
2018-01-03T19:08:11.073Z,58.50
2018-01-03T19:10:39.324Z,58.70
2018-01-03T19:13:07.572Z,58.40
2018-01-03T19:15:35.857Z,58.50
2018-01-03T19:18:04.348Z,58.40
2018-01-03T19:20:32.828Z,58.60
2018-01-03T19:23:02.139Z,58.30
2018-01-03T19:25:31.189Z,58.40
2018-01-03T19:27:59.434Z,58.30
2018-01-03T19:30:27.701Z,58.30
2018-01-03T19:32:56.793Z,58.40
2018-01-03T19:35:25.815Z,58.10
2018-01-03T19:37:54.244Z,58.60
2018-01-03T19:40:22.786Z,58.30
2018-01-03T19:42:51.925Z,58.20
2018-01-03T19:45:20.184Z,58.10
2018-01-03T19:47:48.514Z,58.20
2018-01-03T19:50:17.617Z,58.10
2018-01-03T19:52:46.608Z,58.30
2018-01-03T19:55:15.859Z,58.30
2018-01-03T19:57:44.157Z,58.20
2018-01-03T20:00:12.632Z,58.00
2018-01-03T20:02:41.804Z,58.20
2018-01-03T20:05:10.091Z,58.10
2018-01-03T20:07:38.410Z,58.10
2018-01-03T20:10:07.715Z,58.80
2018-01-03T20:12:36.001Z,58.20
2018-01-03T20:15:05.524Z,58.10
2018-01-03T20:17:33.933Z,57.90
2018-01-03T20:20:02.206Z,58.10
2018-01-03T20:22:30.448Z,57.90
2018-01-03T20:24:59.673Z,57.50
2018-01-03T20:27:27.924Z,57.60
2018-01-03T20:29:56.188Z,57.60
2018-01-03T20:32:24.517Z,57.10
2018-01-03T20:34:52.792Z,57.60
2018-01-03T20:37:21.071Z,57.20
2018-01-03T20:39:49.344Z,57.50
2018-01-03T20:42:17.619Z,57.50
2018-01-03T20:44:45.895Z,57.60
2018-01-03T20:47:14.148Z,57.50
2018-01-03T20:49:43.158Z,57.80
2018-01-03T20:52:11.449Z,57.90
2018-01-03T20:54:39.843Z,57.90
2018-01-03T20:57:08.073Z,58.20
2018-01-03T20:59:36.327Z,57.90
2018-01-03T21:02:05.444Z,58.20
2018-01-03T21:04:35.241Z,58.00
2018-01-03T21:07:03.526Z,57.90
2018-01-03T21:09:31.776Z,58.30
2018-01-03T21:12:00.592Z,58.30
2018-01-03T21:14:29.109Z,58.30
2018-01-03T21:16:57.384Z,58.30
2018-01-03T21:19:26.598Z,58.40
2018-01-03T21:21:55.808Z,58.30
2018-01-03T21:24:25.076Z,58.20
2018-01-03T21:26:54.380Z,58.30
2018-01-03T21:29:22.672Z,58.20
2018-01-03T21:31:50.948Z,58.20
2018-01-03T21:34:20.016Z,57.80
2018-01-03T21:36:49.348Z,58.20
2018-01-03T21:39:18.283Z,58.40
2018-01-03T21:41:46.669Z,58.30
2018-01-03T21:44:15.747Z,58.10
2018-01-03T21:46:44.000Z,57.70
2018-01-03T21:49:13.116Z,57.90
2018-01-03T21:51:41.645Z,57.90
2018-01-03T21:54:10.756Z,57.60
2018-01-03T21:56:39.206Z,57.70
2018-01-03T21:59:07.540Z,57.90
2018-01-03T22:01:35.798Z,58.10
2018-01-03T22:04:07.881Z,58.20
2018-01-03T22:06:36.227Z,58.00
2018-01-03T22:09:04.494Z,58.10
2018-01-03T22:11:32.788Z,58.40
2018-01-03T22:14:01.048Z,58.20
2018-01-03T22:16:29.307Z,58.20
2018-01-03T22:18:57.577Z,58.30
2018-01-03T22:21:25.864Z,58.20
2018-01-03T22:23:55.839Z,58.40
2018-01-03T22:26:24.088Z,58.60
2018-01-03T22:28:52.325Z,58.90
2018-01-03T22:31:20.603Z,58.90
2018-01-03T22:33:48.922Z,59.10
2018-01-03T22:36:17.180Z,59.10
2018-01-03T22:38:45.663Z,59.10
2018-01-03T22:41:13.930Z,59.10
2018-01-03T22:43:42.225Z,59.20
2018-01-03T22:46:11.248Z,59.20
2018-01-03T22:48:39.535Z,59.40
2018-01-03T22:51:07.825Z,59.10
2018-01-03T22:53:36.124Z,59.10
2018-01-03T22:56:04.369Z,59.50
2018-01-03T22:58:33.706Z,59.10
2018-01-03T23:01:01.969Z,59.40
2018-01-03T23:03:30.212Z,59.00
2018-01-03T23:05:58.491Z,59.10
2018-01-03T23:08:26.816Z,59.10
2018-01-03T23:10:55.082Z,58.70
2018-01-03T23:13:23.367Z,58.80
2018-01-03T23:15:52.504Z,58.90
2018-01-03T23:18:20.942Z,58.50
2018-01-03T23:20:49.179Z,58.50
2018-01-03T23:23:17.431Z,58.40
2018-01-03T23:25:46.486Z,58.30
2018-01-03T23:28:14.764Z,58.30
2018-01-03T23:30:43.013Z,58.30
2018-01-03T23:33:11.251Z,58.20
2018-01-03T23:35:40.388Z,58.20
2018-01-03T23:38:09.348Z,57.90
2018-01-03T23:40:37.621Z,57.00
2018-01-03T23:43:06.724Z,57.40
2018-01-03T23:45:34.993Z,57.80
2018-01-03T23:48:04.072Z,58.10
2018-01-03T23:50:33.388Z,57.90
2018-01-03T23:53:01.680Z,58.00
2018-01-03T23:55:29.916Z,57.40
2018-01-03T23:57:58.960Z,57.40
